createdAt,value
2023-05-16T00:00:00.034Z,50.40
2023-05-16T00:02:27.299Z,50.30
2023-05-16T00:04:54.689Z,50.90
2023-05-16T00:07:21.697Z,50.30
2023-05-16T00:09:49.689Z,50.30
2023-05-16T00:12:17.944Z,50.40
2023-05-16T00:14:45.410Z,50.40
2023-05-16T00:17:12.595Z,50.30
2023-05-16T00:19:39.656Z,50.30
2023-05-16T00:22:06.977Z,50.30
2023-05-16T00:24:34.905Z,50.30
2023-05-16T00:27:01.936Z,50.30
2023-05-16T00:29:28.926Z,50.30
2023-05-16T00:31:56.181Z,50.30
2023-05-16T00:34:23.312Z,50.30
2023-05-16T00:36:50.761Z,50.30
2023-05-16T00:39:17.868Z,50.30
2023-05-16T00:41:45.980Z,50.30
2023-05-16T00:44:12.948Z,50.30
2023-05-16T00:46:40.148Z,50.30
2023-05-16T00:49:08.295Z,50.30
2023-05-16T00:51:36.814Z,50.30
2023-05-16T00:54:04.109Z,50.30
2023-05-16T00:56:31.451Z,50.40
2023-05-16T00:58:59.028Z,50.30
2023-05-16T01:01:27.792Z,50.30
2023-05-16T01:03:55.604Z,50.30
2023-05-16T01:06:23.094Z,50.30
2023-05-16T01:08:50.092Z,50.40
2023-05-16T01:11:36.290Z,50.40
2023-05-16T01:14:29.760Z,50.40
2023-05-16T01:17:08.496Z,50.40
2023-05-16T01:20:17.523Z,50.40
2023-05-16T01:23:05.078Z,50.90
2023-05-16T01:25:57.417Z,50.40
2023-05-16T01:28:26.179Z,50.30
2023-05-16T01:30:53.358Z,50.30
2023-05-16T01:33:20.455Z,50.40
2023-05-16T01:35:58.180Z,50.40
2023-05-16T01:38:54.041Z,50.40
2023-05-16T01:41:51.669Z,50.40
2023-05-16T01:44:25.444Z,50.40
2023-05-16T01:46:58.383Z,50.40
2023-05-16T01:49:41.385Z,50.40
2023-05-16T01:52:16.485Z,50.40
2023-05-16T01:54:48.047Z,50.40
2023-05-16T01:57:16.437Z,50.50
2023-05-16T01:59:45.704Z,50.50
2023-05-16T02:02:12.736Z,50.50
2023-05-16T02:04:39.806Z,50.50
2023-05-16T02:07:07.040Z,50.50
2023-05-16T02:09:34.150Z,50.50
2023-05-16T02:12:01.274Z,50.50
2023-05-16T02:14:28.497Z,50.50
2023-05-16T02:16:55.566Z,50.50
2023-05-16T02:19:22.684Z,50.50
2023-05-16T02:21:50.652Z,50.50
2023-05-16T02:24:17.645Z,50.40
2023-05-16T02:26:44.753Z,50.40
2023-05-16T02:29:11.754Z,50.40
2023-05-16T02:31:38.972Z,50.50
2023-05-16T02:34:07.333Z,50.40
2023-05-16T02:36:36.072Z,50.40
2023-05-16T02:39:04.388Z,50.40
2023-05-16T02:41:31.909Z,50.40
2023-05-16T02:43:58.944Z,50.40
2023-05-16T02:46:33.696Z,50.40
2023-05-16T02:49:01.749Z,50.40
2023-05-16T02:51:29.486Z,50.40
2023-05-16T02:54:00.722Z,50.40
2023-05-16T02:56:28.204Z,50.40
2023-05-16T02:58:56.446Z,50.40
2023-05-16T03:01:23.645Z,50.40
2023-05-16T03:03:51.337Z,50.40
2023-05-16T03:06:18.500Z,50.40
2023-05-16T03:08:45.650Z,50.40
2023-05-16T03:11:12.799Z,50.40
2023-05-16T03:13:39.844Z,50.40
2023-05-16T03:16:07.127Z,50.40
2023-05-16T03:18:34.252Z,50.40
2023-05-16T03:21:02.120Z,50.40
2023-05-16T03:23:29.338Z,50.40
2023-05-16T03:25:56.446Z,50.40
2023-05-16T03:28:23.444Z,50.40
2023-05-16T03:30:50.584Z,50.40
2023-05-16T03:33:17.658Z,50.40
2023-05-16T03:35:45.176Z,50.30
2023-05-16T03:38:12.750Z,50.40
2023-05-16T03:40:40.686Z,50.40
2023-05-16T03:43:07.732Z,50.40
2023-05-16T03:45:34.838Z,50.50
2023-05-16T03:48:02.051Z,50.40
2023-05-16T03:50:29.224Z,50.40
2023-05-16T03:52:56.591Z,50.40
2023-05-16T03:55:23.740Z,50.40
2023-05-16T03:57:52.517Z,50.40
2023-05-16T04:00:19.635Z,50.40
2023-05-16T04:02:46.905Z,50.40
2023-05-16T04:05:14.205Z,50.40
2023-05-16T04:07:41.462Z,50.40
2023-05-16T04:10:10.029Z,50.40
2023-05-16T04:12:37.357Z,50.40
2023-05-16T04:15:05.745Z,50.40
2023-05-16T04:17:33.482Z,50.40
2023-05-16T04:20:01.143Z,50.30
2023-05-16T04:22:28.153Z,50.30
2023-05-16T04:24:55.190Z,50.30
2023-05-16T04:27:22.181Z,50.30
2023-05-16T04:29:49.409Z,50.20
2023-05-16T04:32:17.547Z,50.30
2023-05-16T04:34:46.891Z,50.30
2023-05-16T04:37:14.282Z,50.30
2023-05-16T04:39:42.847Z,50.20
2023-05-16T04:42:09.973Z,50.00
2023-05-16T04:44:37.603Z,50.00
2023-05-16T04:47:04.929Z,50.00
2023-05-16T04:49:32.054Z,49.90
2023-05-16T04:51:59.381Z,49.90
2023-05-16T04:54:26.653Z,49.90
2023-05-16T04:56:53.801Z,49.80
2023-05-16T04:59:21.340Z,49.80
2023-05-16T05:01:48.494Z,49.80
2023-05-16T05:04:15.615Z,49.70
2023-05-16T05:06:42.734Z,49.70
2023-05-16T05:09:10.091Z,49.70
2023-05-16T05:11:37.945Z,50.00
2023-05-16T05:14:05.070Z,50.10
2023-05-16T05:16:32.247Z,50.00
2023-05-16T05:18:59.523Z,50.10
2023-05-16T05:21:26.816Z,50.10
2023-05-16T05:23:54.201Z,49.90
2023-05-16T05:26:22.326Z,49.40
2023-05-16T05:29:01.012Z,49.90
2023-05-16T05:31:34.055Z,50.10
2023-05-16T05:34:01.600Z,50.50
2023-05-16T05:36:28.964Z,50.30
2023-05-16T05:38:56.088Z,50.30
2023-05-16T05:41:23.161Z,50.30
2023-05-16T05:43:50.351Z,50.40
2023-05-16T05:46:17.898Z,50.60
2023-05-16T05:48:45.198Z,51.00
2023-05-16T05:51:14.458Z,50.70
2023-05-16T05:53:42.003Z,50.90
2023-05-16T05:56:09.554Z,50.80
2023-05-16T05:58:42.211Z,50.90
2023-05-16T06:01:11.844Z,50.90
2023-05-16T06:03:39.194Z,51.30
2023-05-16T06:06:06.617Z,51.50
2023-05-16T06:08:34.348Z,51.60
2023-05-16T06:11:02.070Z,51.60
2023-05-16T06:13:30.890Z,51.60
2023-05-16T06:15:57.957Z,51.60
2023-05-16T06:18:24.988Z,51.50
2023-05-16T06:20:53.439Z,51.40
2023-05-16T06:23:21.426Z,51.40
2023-05-16T06:25:48.877Z,51.30
2023-05-16T06:28:16.028Z,51.70
2023-05-16T06:30:43.182Z,51.40
2023-05-16T06:33:10.937Z,51.50
2023-05-16T06:35:37.986Z,51.40
2023-05-16T06:38:05.032Z,51.60
2023-05-16T06:40:32.117Z,51.50
2023-05-16T06:42:59.302Z,51.50
2023-05-16T06:45:27.398Z,51.40
2023-05-16T06:47:57.250Z,51.30
2023-05-16T06:50:24.970Z,51.50
2023-05-16T06:52:52.109Z,51.50
2023-05-16T06:55:19.314Z,51.40
2023-05-16T06:57:48.209Z,51.40
2023-05-16T07:00:15.832Z,51.40
2023-05-16T07:02:43.328Z,51.20
2023-05-16T07:05:10.635Z,51.30
2023-05-16T07:07:40.142Z,51.40
2023-05-16T07:10:08.255Z,51.10
2023-05-16T07:12:38.636Z,51.20
2023-05-16T07:15:06.457Z,51.00
2023-05-16T07:17:33.642Z,50.90
2023-05-16T07:20:02.976Z,50.90
2023-05-16T07:22:31.662Z,50.80
2023-05-16T07:25:01.438Z,51.20
2023-05-16T07:27:28.760Z,51.30
2023-05-16T07:29:55.856Z,51.50
2023-05-16T07:32:23.178Z,51.70
2023-05-16T07:34:50.481Z,51.70
2023-05-16T07:37:19.547Z,51.70
2023-05-16T07:39:46.668Z,51.70
2023-05-16T07:42:13.764Z,52.10
2023-05-16T07:44:41.344Z,52.20
2023-05-16T07:47:08.470Z,52.50
2023-05-16T07:49:35.681Z,52.50
2023-05-16T07:52:02.826Z,52.30
2023-05-16T07:54:29.983Z,52.30
2023-05-16T07:56:57.207Z,52.30
2023-05-16T07:59:24.449Z,52.30
2023-05-16T08:01:51.906Z,52.20
2023-05-16T08:04:20.258Z,52.10
2023-05-16T08:06:47.415Z,51.90
2023-05-16T08:09:14.932Z,52.00
2023-05-16T08:11:45.305Z,51.90
2023-05-16T08:14:12.703Z,51.80
2023-05-16T08:16:39.932Z,51.70
2023-05-16T08:19:07.610Z,51.80
2023-05-16T08:21:35.047Z,51.70
2023-05-16T08:24:02.396Z,51.60
2023-05-16T08:26:29.547Z,51.60
2023-05-16T08:28:56.679Z,51.60
2023-05-16T08:31:23.778Z,51.50
2023-05-16T08:33:51.350Z,51.40
2023-05-16T08:36:20.204Z,51.40
2023-05-16T08:38:48.071Z,51.40
2023-05-16T08:41:15.128Z,51.40
2023-05-16T08:43:42.249Z,51.40
2023-05-16T08:46:09.528Z,51.50
2023-05-16T08:48:38.902Z,51.50
2023-05-16T08:51:09.346Z,51.50
2023-05-16T08:53:43.300Z,51.50
2023-05-16T08:56:13.057Z,51.50
2023-05-16T08:58:40.604Z,51.50
2023-05-16T09:01:09.528Z,51.50
2023-05-16T09:03:38.405Z,51.50
2023-05-16T09:06:08.197Z,51.50
2023-05-16T09:08:36.113Z,51.50
2023-05-16T09:11:04.508Z,51.50
2023-05-16T09:13:31.684Z,51.50
2023-05-16T09:16:19.653Z,51.50
2023-05-16T09:18:55.623Z,51.60
2023-05-16T09:21:23.725Z,51.70
2023-05-16T09:23:51.553Z,51.90
2023-05-16T09:26:19.677Z,52.30
2023-05-16T09:28:46.930Z,52.40
2023-05-16T09:31:28.081Z,52.40
2023-05-16T09:33:57.071Z,52.40
2023-05-16T09:36:26.156Z,52.40
2023-05-16T09:38:53.954Z,52.20
2023-05-16T09:41:23.143Z,52.20
2023-05-16T09:43:50.304Z,52.00
2023-05-16T09:46:17.720Z,52.00
2023-05-16T09:48:48.391Z,52.00
2023-05-16T09:51:16.366Z,52.00
2023-05-16T09:53:44.204Z,52.00
2023-05-16T09:56:13.009Z,52.40
2023-05-16T09:58:42.759Z,51.80
2023-05-16T10:01:11.245Z,51.80
2023-05-16T10:03:41.116Z,51.80
2023-05-16T10:06:09.565Z,51.80
2023-05-16T10:08:38.027Z,51.70
2023-05-16T10:11:06.748Z,51.60
2023-05-16T10:13:35.946Z,51.70
2023-05-16T10:16:08.672Z,51.60
2023-05-16T10:18:38.351Z,51.50
2023-05-16T10:21:10.427Z,51.70
2023-05-16T10:23:44.216Z,51.60
2023-05-16T10:26:14.420Z,52.20
2023-05-16T10:28:42.192Z,51.60
2023-05-16T10:31:11.237Z,51.80
2023-05-16T10:33:39.510Z,51.90
2023-05-16T10:36:09.182Z,52.00
2023-05-16T10:38:37.859Z,52.20
2023-05-16T10:41:07.197Z,52.40
2023-05-16T10:43:34.757Z,52.60
2023-05-16T10:46:08.045Z,52.70
2023-05-16T10:48:37.987Z,53.00
2023-05-16T10:51:34.285Z,53.30
2023-05-16T10:54:12.890Z,53.50
2023-05-16T10:56:40.137Z,53.80
2023-05-16T10:59:25.360Z,53.70
2023-05-16T11:01:57.892Z,53.70
2023-05-16T11:04:46.184Z,53.60
2023-05-16T11:07:14.085Z,53.90
2023-05-16T11:09:45.581Z,54.10
2023-05-16T11:12:13.501Z,54.50
2023-05-16T11:14:47.877Z,54.40
2023-05-16T11:17:20.571Z,54.50
2023-05-16T11:19:51.272Z,54.00
2023-05-16T11:22:25.108Z,53.80
2023-05-16T11:25:00.922Z,53.50
2023-05-16T11:27:32.391Z,53.20
2023-05-16T11:30:11.736Z,52.90
2023-05-16T11:32:41.242Z,53.20
2023-05-16T11:35:12.199Z,52.20
2023-05-16T11:37:41.800Z,52.00
2023-05-16T11:40:11.579Z,51.90
2023-05-16T11:42:42.573Z,51.70
2023-05-16T11:45:12.539Z,51.50
2023-05-16T11:47:41.043Z,51.40
2023-05-16T11:50:21.031Z,51.30
2023-05-16T11:52:53.854Z,51.20
2023-05-16T11:55:39.483Z,51.10
2023-05-16T11:58:09.070Z,51.10
2023-05-16T12:00:37.216Z,51.00
2023-05-16T12:03:06.075Z,51.20
2023-05-16T12:05:34.990Z,51.20
2023-05-16T12:08:05.125Z,51.20
2023-05-16T12:10:34.928Z,51.20
2023-05-16T12:13:03.637Z,51.20
2023-05-16T12:15:31.444Z,51.20
2023-05-16T12:17:59.282Z,51.20
2023-05-16T12:20:26.699Z,51.10
2023-05-16T12:22:58.714Z,51.00
2023-05-16T12:25:28.819Z,51.10
2023-05-16T12:28:01.783Z,51.00
2023-05-16T12:30:31.363Z,50.90
2023-05-16T12:33:01.223Z,50.90
2023-05-16T12:35:33.576Z,50.80
2023-05-16T12:38:05.866Z,51.20
2023-05-16T12:40:33.183Z,51.10
2023-05-16T12:43:01.429Z,51.00
2023-05-16T12:45:28.590Z,51.10
2023-05-16T12:47:55.691Z,51.10
2023-05-16T12:50:23.145Z,50.90
2023-05-16T12:52:51.527Z,51.00
2023-05-16T12:55:20.626Z,50.90
2023-05-16T12:57:49.980Z,50.80
2023-05-16T13:00:19.695Z,51.20
2023-05-16T13:02:47.811Z,50.50
2023-05-16T13:05:15.877Z,50.40
2023-05-16T13:07:43.013Z,50.30
2023-05-16T13:10:12.138Z,50.30
2023-05-16T13:12:41.914Z,50.50
2023-05-16T13:15:10.810Z,51.00
2023-05-16T13:17:44.369Z,51.30
2023-05-16T13:20:15.347Z,51.30
2023-05-16T13:22:44.999Z,51.40
2023-05-16T13:25:12.390Z,51.20
2023-05-16T13:27:39.680Z,51.30
2023-05-16T13:30:07.559Z,51.60
2023-05-16T13:32:34.894Z,51.50
2023-05-16T13:35:06.225Z,51.60
2023-05-16T13:37:33.463Z,51.50
2023-05-16T13:40:00.864Z,51.30
2023-05-16T13:42:29.046Z,51.50
2023-05-16T13:44:56.266Z,51.60
2023-05-16T13:47:23.530Z,51.80
2023-05-16T13:49:50.859Z,52.20
2023-05-16T13:52:18.256Z,52.50
2023-05-16T13:54:45.374Z,52.60
2023-05-16T13:57:12.792Z,52.80
2023-05-16T14:02:10.959Z,53.10
2023-05-16T14:04:38.224Z,53.00
2023-05-16T14:07:05.437Z,53.20
2023-05-16T14:09:35.187Z,53.60
2023-05-16T14:12:05.377Z,53.30
2023-05-16T14:14:32.294Z,53.10
2023-05-16T14:16:59.607Z,53.00
2023-05-16T14:19:26.901Z,53.20
2023-05-16T14:21:55.241Z,53.00
2023-05-16T14:24:22.807Z,53.00
2023-05-16T14:26:58.234Z,53.00
2023-05-16T14:29:25.804Z,53.00
2023-05-16T14:31:53.633Z,52.80
2023-05-16T14:34:22.474Z,52.50
2023-05-16T14:36:51.003Z,52.20
2023-05-16T14:39:18.257Z,51.90
2023-05-16T14:41:45.292Z,51.90
2023-05-16T14:44:12.960Z,51.70
2023-05-16T14:46:40.205Z,51.70
2023-05-16T14:49:07.458Z,51.70
2023-05-16T14:51:34.547Z,51.80
2023-05-16T14:54:01.643Z,51.70
2023-05-16T14:56:29.713Z,51.70
2023-05-16T14:58:57.307Z,51.80
2023-05-16T15:01:24.346Z,51.90
2023-05-16T15:03:55.765Z,52.10
2023-05-16T15:06:24.034Z,52.10
2023-05-16T15:08:51.598Z,52.70
2023-05-16T15:11:18.640Z,53.20
2023-05-16T15:13:46.412Z,53.60
2023-05-16T15:16:13.530Z,53.80
2023-05-16T15:18:41.963Z,54.10
2023-05-16T15:21:09.835Z,54.10
2023-05-16T15:23:37.484Z,54.00
2023-05-16T15:26:04.942Z,54.20
2023-05-16T15:28:32.028Z,54.50
2023-05-16T15:30:59.140Z,54.90
2023-05-16T15:33:26.428Z,54.90
2023-05-16T15:35:53.718Z,54.80
2023-05-16T15:38:20.781Z,54.00
2023-05-16T15:40:52.472Z,53.70
2023-05-16T15:43:25.490Z,53.80
2023-05-16T15:45:55.677Z,54.00
2023-05-16T15:48:22.640Z,54.00
2023-05-16T15:50:49.740Z,54.60
2023-05-16T15:53:16.798Z,55.50
2023-05-16T15:55:43.949Z,55.90
2023-05-16T15:58:10.996Z,55.80
2023-05-16T16:00:39.420Z,55.80
2023-05-16T16:03:07.204Z,55.30
2023-05-16T16:05:34.384Z,55.00
2023-05-16T16:08:01.443Z,54.60
2023-05-16T16:10:28.591Z,54.40
2023-05-16T16:13:00.802Z,54.30
2023-05-16T16:15:31.060Z,54.20
2023-05-16T16:18:00.761Z,54.10
2023-05-16T16:20:28.324Z,54.00
2023-05-16T16:22:55.420Z,53.90
2023-05-16T16:25:22.833Z,53.80
2023-05-16T16:27:50.222Z,53.80
2023-05-16T16:30:17.261Z,53.70
2023-05-16T16:32:44.476Z,53.60
2023-05-16T16:35:11.813Z,53.50
2023-05-16T16:37:39.124Z,53.60
2023-05-16T16:40:09.388Z,53.60
2023-05-16T16:42:38.736Z,53.60
2023-05-16T16:45:06.831Z,53.50
2023-05-16T16:47:34.094Z,53.60
2023-05-16T16:50:01.515Z,53.70
2023-05-16T16:52:29.498Z,53.70
2023-05-16T16:54:56.633Z,53.90
2023-05-16T16:57:23.809Z,53.90
2023-05-16T16:59:50.949Z,53.90
2023-05-16T17:02:18.183Z,54.00
2023-05-16T17:04:45.550Z,54.10
2023-05-16T17:07:13.988Z,54.10
2023-05-16T17:09:42.421Z,54.20
2023-05-16T17:12:18.852Z,54.30
2023-05-16T17:14:47.817Z,54.40
2023-05-16T17:17:18.866Z,54.40
2023-05-16T17:19:48.170Z,54.50
2023-05-16T17:22:15.285Z,54.50
2023-05-16T17:24:42.675Z,54.50
2023-05-16T17:27:10.052Z,54.60
2023-05-16T17:29:37.618Z,54.60
2023-05-16T17:32:06.273Z,54.70
2023-05-16T17:34:33.805Z,54.70
2023-05-16T17:37:01.592Z,54.70
2023-05-16T17:39:29.424Z,54.70
2023-05-16T17:41:57.496Z,54.70
2023-05-16T17:44:27.081Z,54.70
2023-05-16T17:46:54.434Z,54.80
2023-05-16T17:49:21.876Z,54.80
2023-05-16T17:51:54.343Z,54.90
2023-05-16T17:54:22.389Z,54.80
2023-05-16T17:56:51.067Z,54.90
2023-05-16T17:59:19.188Z,55.00
2023-05-16T18:01:46.798Z,55.00
2023-05-16T18:04:14.572Z,55.00
2023-05-16T18:06:42.678Z,55.00
2023-05-16T18:09:10.452Z,55.10
2023-05-16T18:11:40.446Z,55.10
2023-05-16T18:14:13.267Z,55.20
2023-05-16T18:16:40.485Z,55.20
2023-05-16T18:19:08.907Z,55.10
2023-05-16T18:21:39.251Z,55.20
2023-05-16T18:24:08.560Z,55.20
2023-05-16T18:26:35.722Z,55.20
2023-05-16T18:29:03.670Z,55.20
2023-05-16T18:31:33.634Z,55.20
2023-05-16T18:34:01.958Z,55.30
2023-05-16T18:36:29.158Z,55.30
2023-05-16T18:38:56.230Z,55.30
2023-05-16T18:41:23.260Z,55.30
2023-05-16T18:43:50.438Z,55.30
2023-05-16T18:46:17.546Z,55.40
2023-05-16T18:48:44.704Z,55.40
2023-05-16T18:51:12.238Z,55.90
2023-05-16T18:53:39.503Z,55.30
2023-05-16T18:56:06.784Z,55.40
2023-05-16T18:58:33.848Z,55.40
2023-05-16T19:01:01.151Z,55.40
2023-05-16T19:03:28.516Z,55.40
2023-05-16T19:05:55.980Z,55.40
2023-05-16T19:08:25.527Z,55.40
2023-05-16T19:10:55.921Z,55.40
2023-05-16T19:13:22.988Z,55.40
2023-05-16T19:15:50.338Z,55.30
2023-05-16T19:18:18.076Z,55.30
2023-05-16T19:20:45.768Z,55.30
2023-05-16T19:23:12.903Z,55.40
2023-05-16T19:25:45.855Z,55.30
2023-05-16T19:28:13.408Z,55.30
2023-05-16T19:30:40.961Z,55.40
2023-05-16T19:33:08.279Z,55.40
2023-05-16T19:35:36.193Z,55.40
2023-05-16T19:38:03.348Z,55.40
2023-05-16T19:40:30.662Z,55.40
2023-05-16T19:42:57.734Z,55.40
2023-05-16T19:45:24.815Z,55.40
2023-05-16T19:47:52.014Z,55.40
2023-05-16T19:50:19.441Z,55.50
2023-05-16T19:52:46.461Z,55.40
2023-05-16T19:55:13.501Z,55.50
2023-05-16T19:57:40.826Z,55.40
2023-05-16T20:00:09.249Z,55.40
2023-05-16T20:02:36.450Z,55.40
2023-05-16T20:05:04.676Z,55.40
2023-05-16T20:07:31.780Z,55.40
2023-05-16T20:09:58.906Z,55.40
2023-05-16T20:12:26.374Z,55.40
2023-05-16T20:14:53.467Z,55.40
2023-05-16T20:17:20.616Z,55.30
2023-05-16T20:19:47.957Z,55.30
2023-05-16T20:22:17.068Z,55.40
2023-05-16T20:24:44.186Z,55.40
2023-05-16T20:27:11.332Z,55.40
2023-05-16T20:29:38.406Z,55.40
2023-05-16T20:32:05.523Z,55.40
2023-05-16T20:34:32.543Z,55.40
2023-05-16T20:36:59.715Z,55.40
2023-05-16T20:39:26.723Z,55.40
2023-05-16T20:41:53.808Z,55.40
2023-05-16T20:44:21.064Z,55.40
2023-05-16T20:46:48.232Z,55.30
2023-05-16T20:49:15.338Z,55.30
2023-05-16T20:51:42.411Z,55.30
2023-05-16T20:54:10.718Z,55.30
2023-05-16T20:56:37.747Z,55.30
2023-05-16T20:59:04.772Z,55.30
2023-05-16T21:01:31.890Z,55.30
2023-05-16T21:03:58.975Z,55.30
2023-05-16T21:06:26.215Z,55.30
2023-05-16T21:08:53.299Z,55.30
2023-05-16T21:11:22.102Z,55.30
2023-05-16T21:13:49.373Z,55.30
2023-05-16T21:16:16.549Z,55.30
2023-05-16T21:18:43.885Z,55.30
2023-05-16T21:21:11.947Z,55.30
2023-05-16T21:23:39.588Z,55.30
2023-05-16T21:26:07.154Z,55.30
2023-05-16T21:28:39.658Z,55.30
2023-05-16T21:31:13.217Z,55.30
2023-05-16T21:33:40.302Z,55.20
2023-05-16T21:36:07.532Z,55.30
2023-05-16T21:38:34.703Z,55.20
2023-05-16T21:41:01.849Z,55.20
2023-05-16T21:43:28.896Z,55.20
2023-05-16T21:45:56.098Z,55.20
2023-05-16T21:48:23.284Z,55.20
2023-05-16T21:50:51.115Z,55.20
2023-05-16T21:53:19.177Z,55.10
2023-05-16T21:55:46.393Z,55.20
2023-05-16T21:58:13.443Z,55.20
2023-05-16T22:00:40.804Z,55.10
2023-05-16T22:03:08.059Z,55.10
2023-05-16T22:05:35.226Z,55.10
2023-05-16T22:08:02.402Z,55.10
2023-05-16T22:10:29.583Z,55.10
2023-05-16T22:12:56.622Z,55.10
2023-05-16T22:15:23.835Z,55.10
2023-05-16T22:17:51.422Z,55.20
2023-05-16T22:20:18.595Z,55.20
2023-05-16T22:22:45.666Z,55.20
2023-05-16T22:25:12.821Z,55.20
2023-05-16T22:27:39.890Z,55.20
2023-05-16T22:30:07.634Z,55.20
2023-05-16T22:32:34.710Z,55.20
2023-05-16T22:35:01.798Z,55.10
2023-05-16T22:37:28.887Z,55.10
2023-05-16T22:39:57.194Z,55.10
2023-05-16T22:42:24.253Z,55.00
2023-05-16T22:44:51.370Z,55.00
2023-05-16T22:47:18.509Z,55.00
2023-05-16T22:49:45.736Z,54.90
2023-05-16T22:52:12.849Z,54.90
2023-05-16T22:54:41.695Z,54.80
2023-05-16T22:57:08.829Z,54.80
2023-05-16T22:59:35.847Z,54.80
2023-05-16T23:02:02.991Z,54.80
2023-05-16T23:04:30.000Z,54.80
2023-05-16T23:06:57.078Z,54.80
2023-05-16T23:09:24.269Z,54.70
2023-05-16T23:11:51.430Z,54.70
2023-05-16T23:14:18.532Z,54.70
2023-05-16T23:16:45.606Z,54.70
2023-05-16T23:19:12.817Z,54.70
2023-05-16T23:21:40.115Z,54.70
2023-05-16T23:24:07.337Z,54.70
2023-05-16T23:26:34.444Z,54.70
2023-05-16T23:29:01.525Z,54.70
2023-05-16T23:31:28.796Z,54.70
2023-05-16T23:33:56.275Z,54.70
2023-05-16T23:36:23.371Z,54.70
2023-05-16T23:38:50.988Z,54.70
2023-05-16T23:41:18.322Z,54.60
2023-05-16T23:43:45.382Z,54.70
2023-05-16T23:46:12.434Z,54.70
2023-05-16T23:48:40.165Z,54.60
2023-05-16T23:51:07.858Z,54.60
2023-05-16T23:53:35.453Z,54.60
2023-05-16T23:56:02.591Z,54.60
2023-05-16T23:58:29.646Z,54.60
